createdAt,value
2018-07-15T00:00:54.951Z,99.90
2018-07-15T00:03:22.495Z,99.90
2018-07-15T00:08:17.219Z,99.90
2018-07-15T00:10:45.602Z,99.90
2018-07-15T00:13:13.767Z,99.90
2018-07-15T00:15:41.820Z,99.90
2018-07-15T00:18:09.202Z,99.90
2018-07-15T00:20:37.009Z,99.90
2018-07-15T00:23:04.663Z,99.90
2018-07-15T00:25:32.205Z,99.90
2018-07-15T00:27:59.879Z,99.90
2018-07-15T00:30:27.496Z,99.90
2018-07-15T00:32:54.965Z,99.90
2018-07-15T00:35:22.493Z,99.90
2018-07-15T00:37:49.886Z,99.90
2018-07-15T00:40:17.313Z,99.90
2018-07-15T00:42:44.792Z,99.90
2018-07-15T00:45:12.259Z,99.90
2018-07-15T00:47:39.660Z,99.90
2018-07-15T00:50:07.108Z,99.90
2018-07-15T00:52:34.450Z,99.90
2018-07-15T00:55:01.811Z,99.90
2018-07-15T00:57:29.206Z,99.90
2018-07-15T00:59:56.663Z,99.90
2018-07-15T01:02:24.002Z,99.90
2018-07-15T01:04:51.331Z,99.90
2018-07-15T01:07:18.987Z,99.90
2018-07-15T01:09:46.420Z,99.90
2018-07-15T01:12:13.822Z,99.90
2018-07-15T01:14:41.203Z,99.90
2018-07-15T01:17:08.586Z,99.90
2018-07-15T01:19:36.380Z,99.90
2018-07-15T01:22:03.740Z,99.90
2018-07-15T01:24:31.132Z,99.90
2018-07-15T01:26:58.564Z,99.90
2018-07-15T01:29:25.905Z,99.90
2018-07-15T01:31:53.325Z,99.90
2018-07-15T01:34:20.675Z,99.90
2018-07-15T01:36:48.032Z,99.90
2018-07-15T01:39:15.516Z,99.90
2018-07-15T01:41:42.970Z,99.90
2018-07-15T01:44:10.303Z,99.90
2018-07-15T01:46:38.053Z,99.90
2018-07-15T01:49:05.397Z,99.90
2018-07-15T01:51:32.781Z,99.90
2018-07-15T01:54:00.247Z,99.90
2018-07-15T01:56:27.622Z,99.90
2018-07-15T01:58:55.047Z,99.90
2018-07-15T02:01:22.789Z,99.90
2018-07-15T02:06:17.574Z,99.90
2018-07-15T02:08:44.910Z,99.90
2018-07-15T02:11:16.240Z,99.90
2018-07-15T02:13:43.781Z,99.90
2018-07-15T02:16:11.243Z,99.90
2018-07-15T02:18:38.668Z,99.90
2018-07-15T02:26:00.686Z,99.90
2018-07-15T02:28:28.090Z,99.90
2018-07-15T02:30:55.490Z,99.90
2018-07-15T02:33:22.852Z,99.90
2018-07-15T02:35:50.226Z,99.90
2018-07-15T02:38:17.561Z,99.90
2018-07-15T02:40:44.947Z,99.90
2018-07-15T02:43:12.367Z,99.90
2018-07-15T02:45:39.809Z,99.90
2018-07-15T02:48:07.134Z,99.90
2018-07-15T02:50:34.482Z,99.90
2018-07-15T02:53:01.889Z,99.90
2018-07-15T02:55:29.330Z,99.90
2018-07-15T02:57:56.817Z,99.90
2018-07-15T03:00:27.722Z,99.90
2018-07-15T03:02:55.622Z,99.90
2018-07-15T03:05:23.158Z,99.90
2018-07-15T03:07:50.481Z,99.90
2018-07-15T03:10:17.874Z,99.90
2018-07-15T03:12:45.261Z,99.90
2018-07-15T03:15:12.641Z,99.90
2018-07-15T03:17:39.976Z,99.90
2018-07-15T03:20:07.517Z,99.90
2018-07-15T03:22:34.877Z,99.90
2018-07-15T03:25:02.441Z,99.90
2018-07-15T03:27:29.787Z,99.90
2018-07-15T03:29:57.169Z,99.90
2018-07-15T03:32:24.566Z,99.90
2018-07-15T03:34:51.953Z,99.90
2018-07-15T03:37:19.393Z,99.90
2018-07-15T03:39:46.824Z,99.90
2018-07-15T03:42:14.273Z,99.90
2018-07-15T03:44:41.662Z,99.90
2018-07-15T03:47:08.989Z,99.90
2018-07-15T03:49:36.493Z,99.90
2018-07-15T03:52:03.929Z,99.90
2018-07-15T03:54:31.273Z,99.90
2018-07-15T03:56:58.725Z,99.90
2018-07-15T03:59:26.107Z,99.90
2018-07-15T04:01:53.485Z,99.90
2018-07-15T04:04:20.757Z,99.90
2018-07-15T04:06:48.193Z,99.90
2018-07-15T04:09:16.046Z,99.90
2018-07-15T04:11:43.405Z,99.90
2018-07-15T04:14:10.799Z,99.90
2018-07-15T04:16:38.195Z,99.90
2018-07-15T04:19:05.526Z,99.90
2018-07-15T04:21:32.924Z,99.90
2018-07-15T04:24:00.318Z,99.90
2018-07-15T04:26:27.704Z,99.90
2018-07-15T04:28:55.033Z,99.90
2018-07-15T04:31:22.473Z,99.90
2018-07-15T04:33:49.891Z,99.90
2018-07-15T04:36:17.306Z,99.90
2018-07-15T04:38:44.630Z,99.90
2018-07-15T04:41:12.019Z,99.90
2018-07-15T04:43:39.455Z,99.90
2018-07-15T04:46:06.893Z,99.90
2018-07-15T04:48:34.340Z,99.90
2018-07-15T04:51:01.768Z,99.90
2018-07-15T04:53:29.170Z,99.90
2018-07-15T04:55:56.569Z,99.90
2018-07-15T04:58:24.010Z,99.90
2018-07-15T05:00:51.434Z,99.90
2018-07-15T05:03:18.946Z,99.90
2018-07-15T05:05:57.784Z,99.90
2018-07-15T05:08:25.590Z,99.90
2018-07-15T05:11:29.766Z,99.90
2018-07-15T05:13:57.265Z,99.90
2018-07-15T05:16:24.706Z,99.90
2018-07-15T05:18:52.126Z,99.90
2018-07-15T05:21:19.506Z,99.90
2018-07-15T05:23:46.848Z,99.90
2018-07-15T05:26:14.306Z,99.90
2018-07-15T05:28:41.667Z,99.90
2018-07-15T05:31:08.949Z,99.90
2018-07-15T05:33:36.485Z,99.90
2018-07-15T05:36:04.150Z,99.90
2018-07-15T05:38:31.537Z,99.90
2018-07-15T05:40:59.017Z,99.90
2018-07-15T05:43:26.417Z,99.90
2018-07-15T05:45:53.782Z,99.90
2018-07-15T05:48:21.170Z,99.90
2018-07-15T05:50:48.546Z,99.90
2018-07-15T05:53:15.938Z,99.90
2018-07-15T05:55:43.358Z,99.90
2018-07-15T05:58:10.860Z,99.90
2018-07-15T06:00:38.301Z,99.90
2018-07-15T06:03:05.706Z,99.90
2018-07-15T06:05:33.140Z,99.90
2018-07-15T06:08:00.492Z,99.90
2018-07-15T06:10:27.908Z,99.90
2018-07-15T06:12:55.277Z,99.90
2018-07-15T06:15:22.654Z,99.90
2018-07-15T06:17:49.999Z,99.90
2018-07-15T06:20:17.398Z,99.90
2018-07-15T06:22:44.979Z,99.90
2018-07-15T06:25:12.392Z,99.90
2018-07-15T06:27:39.843Z,99.90
2018-07-15T06:30:07.305Z,99.90
2018-07-15T06:32:34.762Z,99.90
2018-07-15T06:35:02.073Z,99.90
2018-07-15T06:37:29.469Z,99.90
2018-07-15T06:39:56.949Z,99.90
2018-07-15T06:42:24.356Z,99.90
2018-07-15T06:44:51.750Z,99.90
2018-07-15T06:47:19.189Z,99.90
2018-07-15T06:49:46.549Z,99.90
2018-07-15T06:52:13.887Z,99.90
2018-07-15T06:54:41.296Z,99.90
2018-07-15T06:57:08.781Z,99.90
2018-07-15T06:59:36.227Z,99.90
2018-07-15T07:02:03.639Z,99.90
2018-07-15T07:04:31.097Z,99.90
2018-07-15T07:06:58.511Z,99.90
2018-07-15T07:09:25.989Z,99.90
2018-07-15T07:11:53.398Z,99.90
2018-07-15T07:14:20.869Z,99.90
2018-07-15T07:16:48.303Z,99.90
2018-07-15T07:21:43.107Z,99.90
2018-07-15T07:24:10.527Z,99.90
2018-07-15T07:26:37.878Z,99.90
2018-07-15T07:29:05.276Z,99.90
2018-07-15T07:31:32.719Z,99.90
2018-07-15T07:34:00.131Z,99.90
2018-07-15T07:36:27.595Z,99.90
2018-07-15T07:38:55.092Z,99.90
2018-07-15T07:41:22.551Z,99.90
2018-07-15T07:43:49.797Z,99.90
2018-07-15T07:46:17.155Z,99.90
2018-07-15T07:48:44.558Z,99.90
2018-07-15T07:51:12.013Z,99.90
2018-07-15T07:53:39.363Z,99.90
2018-07-15T07:56:06.806Z,99.90
2018-07-15T07:58:34.226Z,99.90
2018-07-15T08:01:01.583Z,99.90
2018-07-15T08:03:29.066Z,99.90
2018-07-15T08:05:56.443Z,99.90
2018-07-15T08:08:23.863Z,99.90
2018-07-15T08:10:51.292Z,99.90
2018-07-15T08:13:18.813Z,99.90
2018-07-15T08:15:46.322Z,99.90
2018-07-15T08:18:13.638Z,99.90
2018-07-15T08:20:41.106Z,99.90
2018-07-15T08:23:08.472Z,99.90
2018-07-15T08:25:35.898Z,99.90
2018-07-15T08:28:03.335Z,99.90
2018-07-15T08:30:42.153Z,99.90
2018-07-15T08:33:09.457Z,99.90
2018-07-15T08:35:36.890Z,99.90
2018-07-15T08:38:04.373Z,99.90
2018-07-15T08:40:31.807Z,99.90
2018-07-15T08:42:59.195Z,99.90
2018-07-15T08:45:26.499Z,99.90
2018-07-15T08:47:53.827Z,99.90
2018-07-15T08:50:21.586Z,99.90
2018-07-15T08:52:49.025Z,99.90
2018-07-15T08:55:16.754Z,99.90
2018-07-15T08:57:44.162Z,99.90
2018-07-15T09:00:11.506Z,99.90
2018-07-15T09:02:38.818Z,99.90
2018-07-15T09:05:06.377Z,99.90
2018-07-15T09:07:33.899Z,99.90
2018-07-15T09:10:01.398Z,99.90
2018-07-15T09:12:28.773Z,99.90
2018-07-15T09:14:56.236Z,99.90
2018-07-15T09:17:23.726Z,99.90
2018-07-15T09:19:51.213Z,99.90
2018-07-15T09:22:18.779Z,99.90
2018-07-15T09:24:46.186Z,99.90
2018-07-15T09:27:13.670Z,99.90
2018-07-15T09:32:08.458Z,99.90
2018-07-15T09:34:35.974Z,99.90
2018-07-15T09:37:03.423Z,99.90
2018-07-15T09:39:30.913Z,99.90
2018-07-15T09:41:58.457Z,99.90
2018-07-15T09:44:25.947Z,99.90
2018-07-15T09:46:53.342Z,99.90
2018-07-15T09:49:20.695Z,99.90
2018-07-15T09:51:48.196Z,99.90
2018-07-15T09:54:15.618Z,99.90
2018-07-15T09:56:43.081Z,99.90
2018-07-15T09:59:10.614Z,99.90
2018-07-15T10:01:38.023Z,99.90
2018-07-15T10:04:05.648Z,99.90
2018-07-15T10:06:34.568Z,99.90
2018-07-15T10:09:02.049Z,99.90
2018-07-15T10:11:29.554Z,99.90
2018-07-15T10:13:56.954Z,99.90
2018-07-15T10:16:24.338Z,99.90
2018-07-15T10:18:51.755Z,99.90
2018-07-15T10:21:19.147Z,99.90
2018-07-15T10:23:46.649Z,99.90
2018-07-15T10:26:13.966Z,99.90
2018-07-15T10:28:41.331Z,99.90
2018-07-15T10:31:08.807Z,99.90
2018-07-15T10:33:36.369Z,99.90
2018-07-15T10:36:03.778Z,99.90
2018-07-15T10:38:31.147Z,99.90
2018-07-15T10:40:58.631Z,99.90
2018-07-15T10:43:26.149Z,99.90
2018-07-15T10:45:53.625Z,99.90
2018-07-15T10:48:21.015Z,99.90
2018-07-15T10:50:48.491Z,99.90
2018-07-15T10:53:15.935Z,99.90
2018-07-15T10:55:43.358Z,99.90
2018-07-15T10:58:11.131Z,99.90
2018-07-15T11:00:38.706Z,99.90
2018-07-15T11:03:06.067Z,99.80
2018-07-15T11:05:33.472Z,99.90
2018-07-15T11:08:00.993Z,98.80
2018-07-15T11:10:28.578Z,99.70
2018-07-15T11:12:55.886Z,99.90
2018-07-15T11:15:23.380Z,99.90
2018-07-15T11:17:50.800Z,96.40
2018-07-15T11:20:18.345Z,96.10
2018-07-15T11:22:45.803Z,98.00
2018-07-15T11:25:13.100Z,98.40
2018-07-15T11:27:40.519Z,95.80
2018-07-15T11:30:07.999Z,97.00
2018-07-15T11:32:35.470Z,95.60
2018-07-15T11:35:02.975Z,97.50
2018-07-15T11:37:30.437Z,96.50
2018-07-15T11:39:57.876Z,96.70
2018-07-15T11:42:25.329Z,94.80
2018-07-15T11:44:52.685Z,96.50
2018-07-15T11:47:20.234Z,94.90
2018-07-15T11:49:47.584Z,96.00
2018-07-15T11:52:15.095Z,96.10
2018-07-15T11:54:42.425Z,95.30
2018-07-15T11:57:09.817Z,95.20
2018-07-15T11:59:37.245Z,95.90
2018-07-15T12:04:32.135Z,95.40
2018-07-15T12:06:59.698Z,95.90
2018-07-15T12:09:27.085Z,96.10
2018-07-15T12:11:54.478Z,97.50
2018-07-15T12:14:21.926Z,98.00
2018-07-15T12:16:49.277Z,97.20
2018-07-15T12:19:16.752Z,97.50
2018-07-15T12:21:44.139Z,96.50
2018-07-15T12:24:11.675Z,97.30
2018-07-15T12:26:38.981Z,98.10
2018-07-15T12:29:06.715Z,99.90
2018-07-15T12:31:34.194Z,99.90
2018-07-15T12:34:01.622Z,99.90
2018-07-15T12:36:29.061Z,99.60
2018-07-15T12:38:56.493Z,97.60
2018-07-15T12:41:24.034Z,97.00
2018-07-15T12:43:51.419Z,98.70
2018-07-15T12:46:18.960Z,98.20
2018-07-15T12:48:46.604Z,98.80
2018-07-15T12:51:14.131Z,96.90
2018-07-15T12:53:41.514Z,97.80
2018-07-15T12:56:08.982Z,97.30
2018-07-15T12:58:36.414Z,97.20
2018-07-15T13:01:03.791Z,98.70
2018-07-15T13:03:31.244Z,98.80
2018-07-15T13:05:58.741Z,98.40
2018-07-15T13:08:26.165Z,99.90
2018-07-15T13:10:53.546Z,98.80
2018-07-15T13:13:20.974Z,99.10
2018-07-15T13:15:48.467Z,99.10
2018-07-15T13:18:15.985Z,99.80
2018-07-15T13:20:43.394Z,99.80
2018-07-15T13:23:10.766Z,99.90
2018-07-15T13:25:38.543Z,98.50
2018-07-15T13:28:06.242Z,98.20
2018-07-15T13:30:33.844Z,98.60
2018-07-15T13:33:01.380Z,97.90
2018-07-15T13:35:29.156Z,98.60
2018-07-15T13:37:56.542Z,98.10
2018-07-15T13:40:23.898Z,98.60
2018-07-15T13:42:51.360Z,97.80
2018-07-15T13:47:46.082Z,98.90
2018-07-15T13:50:13.419Z,99.50
2018-07-15T13:52:40.872Z,99.90
2018-07-15T13:55:08.174Z,99.90
2018-07-15T13:57:35.620Z,99.90
2018-07-15T14:00:04.345Z,99.90
2018-07-15T14:02:31.674Z,99.90
2018-07-15T14:04:59.015Z,99.90
2018-07-15T14:07:26.526Z,99.90
2018-07-15T14:09:53.866Z,99.90
2018-07-15T14:12:21.354Z,99.90
2018-07-15T14:14:48.674Z,99.90
2018-07-15T14:17:16.122Z,99.90
2018-07-15T14:19:43.581Z,99.90
2018-07-15T14:22:10.947Z,99.90
2018-07-15T14:24:38.276Z,99.90
2018-07-15T14:27:05.682Z,99.90
2018-07-15T14:29:33.038Z,99.90
2018-07-15T14:32:00.459Z,99.90
2018-07-15T14:34:27.876Z,99.90
2018-07-15T14:36:55.306Z,99.90
2018-07-15T14:39:31.858Z,99.90
2018-07-15T14:41:59.250Z,99.90
2018-07-15T14:44:26.722Z,99.90
2018-07-15T14:46:54.118Z,99.90
2018-07-15T14:49:21.510Z,99.90
2018-07-15T14:51:48.966Z,99.90
2018-07-15T14:54:16.574Z,99.90
2018-07-15T14:56:44.042Z,99.90
2018-07-15T14:59:11.669Z,99.90
2018-07-15T15:01:39.091Z,99.90
2018-07-15T15:04:06.537Z,99.90
2018-07-15T15:06:34.036Z,99.90
2018-07-15T15:09:01.610Z,99.90
2018-07-15T15:11:29.154Z,99.90
2018-07-15T15:13:56.668Z,99.90
2018-07-15T15:16:24.099Z,99.90
2018-07-15T15:18:51.538Z,99.90
2018-07-15T15:21:19.006Z,99.90
2018-07-15T15:23:46.487Z,99.90
2018-07-15T15:26:13.961Z,99.90
2018-07-15T15:28:41.293Z,99.90
2018-07-15T15:31:08.806Z,99.90
2018-07-15T15:33:36.300Z,99.90
2018-07-15T15:36:03.633Z,99.90
2018-07-15T15:38:31.144Z,99.90
2018-07-15T15:40:58.547Z,99.90
2018-07-15T15:43:25.974Z,99.90
2018-07-15T15:45:53.319Z,99.90
2018-07-15T15:48:20.776Z,99.90
2018-07-15T15:50:48.331Z,99.90
2018-07-15T15:53:15.838Z,99.90
2018-07-15T15:55:43.289Z,99.90
2018-07-15T15:58:10.854Z,99.90
2018-07-15T16:00:38.937Z,99.90
2018-07-15T16:03:06.974Z,99.90
2018-07-15T16:05:34.305Z,99.90
2018-07-15T16:08:01.718Z,99.90
2018-07-15T16:10:29.150Z,99.90
2018-07-15T16:12:56.774Z,99.90
2018-07-15T16:15:24.200Z,99.90
2018-07-15T16:17:51.554Z,99.90
2018-07-15T16:20:19.021Z,99.90
2018-07-15T16:22:46.399Z,99.90
2018-07-15T16:25:13.885Z,99.90
2018-07-15T16:27:41.320Z,99.90
2018-07-15T16:30:08.940Z,99.90
2018-07-15T16:32:37.426Z,99.90
2018-07-15T16:35:04.871Z,99.90
2018-07-15T16:37:32.302Z,99.90
2018-07-15T16:39:59.789Z,99.90
2018-07-15T16:42:27.328Z,99.90
2018-07-15T16:44:54.688Z,99.90
2018-07-15T16:47:22.436Z,99.90
2018-07-15T16:49:49.934Z,99.90
2018-07-15T16:52:17.369Z,99.90
2018-07-15T16:54:44.901Z,99.90
2018-07-15T16:57:12.335Z,99.90
2018-07-15T16:59:39.755Z,99.90
2018-07-15T17:02:07.236Z,99.90
2018-07-15T17:04:35.601Z,99.90
2018-07-15T17:07:03.233Z,99.90
2018-07-15T17:09:30.574Z,99.90
2018-07-15T17:14:26.978Z,99.90
2018-07-15T17:16:54.420Z,99.90
2018-07-15T17:19:21.858Z,99.90
2018-07-15T17:21:49.267Z,99.90
2018-07-15T17:24:16.696Z,99.90
2018-07-15T17:26:44.094Z,99.90
2018-07-15T17:29:11.505Z,99.90
2018-07-15T17:31:39.047Z,99.90
2018-07-15T17:34:08.585Z,99.90
2018-07-15T17:36:35.945Z,99.90
2018-07-15T17:39:04.214Z,99.90
2018-07-15T17:41:32.024Z,99.90
2018-07-15T17:43:59.535Z,99.90
2018-07-15T17:46:26.910Z,99.90
2018-07-15T17:48:54.736Z,99.90
2018-07-15T17:51:22.167Z,99.90
2018-07-15T17:53:50.198Z,99.90
2018-07-15T17:56:19.054Z,99.90
2018-07-15T17:58:46.590Z,99.90
2018-07-15T18:01:17.650Z,99.90
2018-07-15T18:06:18.741Z,99.90
2018-07-15T18:08:46.167Z,99.90
2018-07-15T18:11:13.555Z,99.90
2018-07-15T18:13:40.898Z,99.90
2018-07-15T18:16:08.432Z,99.90
2018-07-15T18:18:35.865Z,99.90
2018-07-15T18:21:03.289Z,99.90
2018-07-15T18:23:30.699Z,99.90
2018-07-15T18:25:58.154Z,99.90
2018-07-15T18:28:25.599Z,99.90
2018-07-15T18:30:53.095Z,99.90
2018-07-15T18:33:20.583Z,99.90
2018-07-15T18:35:48.027Z,99.90
2018-07-15T18:38:15.374Z,99.90
2018-07-15T18:40:42.783Z,99.90
2018-07-15T18:43:10.160Z,99.90
2018-07-15T18:45:37.562Z,99.90
2018-07-15T18:48:05.048Z,99.90
2018-07-15T18:50:32.410Z,99.90
2018-07-15T18:52:59.889Z,99.90
2018-07-15T18:55:27.288Z,99.90
2018-07-15T18:57:54.791Z,99.90
2018-07-15T19:00:22.385Z,99.90
2018-07-15T19:02:49.835Z,99.90
2018-07-15T19:05:17.631Z,99.90
2018-07-15T19:07:45.554Z,99.90
2018-07-15T19:10:12.959Z,99.90
2018-07-15T19:12:40.640Z,99.90
2018-07-15T19:15:08.115Z,99.90
2018-07-15T19:17:35.580Z,99.90
2018-07-15T19:20:03.126Z,99.90
2018-07-15T19:22:30.626Z,99.90
2018-07-15T19:24:58.072Z,99.90
2018-07-15T19:27:25.577Z,99.90
2018-07-15T19:29:53.025Z,99.90
2018-07-15T19:32:20.430Z,99.90
2018-07-15T19:34:47.838Z,99.90
2018-07-15T19:37:15.283Z,99.90
2018-07-15T19:39:42.779Z,99.90
2018-07-15T19:42:10.218Z,99.90
2018-07-15T19:44:37.677Z,99.90
2018-07-15T19:47:05.406Z,99.90
2018-07-15T19:49:32.995Z,99.90
2018-07-15T19:52:00.366Z,99.90
2018-07-15T19:54:27.758Z,99.90
2018-07-15T19:56:55.158Z,99.90
2018-07-15T19:59:22.674Z,99.90
2018-07-15T20:01:50.229Z,99.90
2018-07-15T20:04:18.212Z,99.90
2018-07-15T20:06:46.377Z,99.90
2018-07-15T20:09:13.883Z,99.90
2018-07-15T20:11:41.343Z,99.90
2018-07-15T20:14:08.830Z,99.90
2018-07-15T20:16:37.456Z,99.90
2018-07-15T20:19:04.963Z,99.90
2018-07-15T20:21:32.529Z,99.90
2018-07-15T20:24:00.021Z,99.90
2018-07-15T20:26:27.499Z,99.90
2018-07-15T20:28:54.897Z,99.90
2018-07-15T20:31:22.462Z,99.90
2018-07-15T20:33:49.869Z,99.90
2018-07-15T20:36:17.355Z,99.90
2018-07-15T20:41:12.767Z,99.90
2018-07-15T20:43:40.154Z,99.90
2018-07-15T20:48:34.912Z,99.90
2018-07-15T20:51:02.366Z,99.90
2018-07-15T20:53:29.774Z,99.90
2018-07-15T20:55:57.247Z,99.90
2018-07-15T20:58:24.640Z,99.90
2018-07-15T21:00:52.161Z,99.90
2018-07-15T21:03:19.584Z,99.90
2018-07-15T21:05:46.965Z,99.90
2018-07-15T21:08:14.407Z,99.90
2018-07-15T21:10:41.720Z,99.90
2018-07-15T21:13:09.176Z,99.90
2018-07-15T21:15:37.849Z,99.90
2018-07-15T21:18:06.241Z,99.90
2018-07-15T21:20:34.218Z,99.90
2018-07-15T21:23:02.182Z,99.90
2018-07-15T21:25:30.099Z,99.90
2018-07-15T21:27:58.020Z,99.90
2018-07-15T21:30:27.341Z,99.90
2018-07-15T21:32:55.784Z,99.90
2018-07-15T21:35:23.534Z,99.90
2018-07-15T21:37:51.651Z,99.90
2018-07-15T21:40:19.516Z,99.90
2018-07-15T21:42:47.198Z,99.90
2018-07-15T21:45:15.157Z,99.90
2018-07-15T21:47:43.005Z,99.90
2018-07-15T21:50:10.856Z,99.90
2018-07-15T21:52:38.463Z,99.90
2018-07-15T21:57:59.407Z,99.90
2018-07-15T22:03:22.351Z,99.90
2018-07-15T22:05:53.245Z,99.90
2018-07-15T22:08:32.196Z,99.90
2018-07-15T22:11:00.968Z,99.90
2018-07-15T22:13:28.606Z,99.90
2018-07-15T22:15:56.245Z,99.90
2018-07-15T22:18:24.136Z,99.90
2018-07-15T22:20:51.949Z,99.90
2018-07-15T22:23:19.892Z,99.90
2018-07-15T22:25:47.572Z,99.90
2018-07-15T22:28:15.124Z,99.90
2018-07-15T22:30:42.689Z,99.90
2018-07-15T22:33:10.167Z,99.90
2018-07-15T22:35:37.570Z,99.90
2018-07-15T22:38:05.637Z,99.90
2018-07-15T22:40:33.102Z,99.90
2018-07-15T22:43:00.481Z,99.90
2018-07-15T22:45:27.920Z,99.90
2018-07-15T22:47:55.263Z,99.90
2018-07-15T22:50:22.757Z,99.90
2018-07-15T22:52:54.358Z,99.90
2018-07-15T22:55:21.722Z,99.90
2018-07-15T22:57:49.210Z,99.90
2018-07-15T23:00:20.799Z,99.90
2018-07-15T23:02:50.037Z,99.90
2018-07-15T23:05:55.876Z,99.90
2018-07-15T23:08:24.313Z,99.90
2018-07-15T23:10:51.931Z,99.90
2018-07-15T23:13:24.078Z,99.90
2018-07-15T23:15:57.020Z,99.90
2018-07-15T23:18:25.130Z,99.90
2018-07-15T23:20:52.546Z,99.90
2018-07-15T23:23:19.970Z,99.90
2018-07-15T23:25:47.725Z,99.90
2018-07-15T23:28:16.096Z,99.90
2018-07-15T23:30:44.033Z,99.90
2018-07-15T23:33:11.714Z,99.90
2018-07-15T23:35:39.132Z,99.90
2018-07-15T23:38:06.702Z,99.90
2018-07-15T23:40:34.110Z,99.90
2018-07-15T23:43:01.921Z,99.90
2018-07-15T23:45:30.526Z,99.90
2018-07-15T23:47:57.938Z,99.90
2018-07-15T23:50:25.525Z,99.90
2018-07-15T23:52:53.178Z,99.90
2018-07-15T23:55:20.622Z,99.90
2018-07-15T23:57:48.342Z,99.90
